Time;durP1;ratioP1;P1;durP2;ratioP2;P2;SDS_P1;SDS_P2;PMS_P1;PMS_P2;Temp;Humidity;BMP_temperature;BMP_pressure;BME280_temperature;BME280_humidity;BME280_pressure;Samples;Min_cycle;Max_cycle;Signal;HPM_P1;HPM_P2
2023/06/05 00:00:31;;;;;;;18.48;17.48;;;;;;;;;;5038473;28;20025;-60
2023/06/05 00:02:56;;;;;;;21.95;20.75;;;;;;;;;;5039618;28;20135;-60
2023/06/05 00:05:25;;;;;;;22.70;21.50;;;;;;;;;;5037731;28;20098;-61
2023/06/05 00:07:51;;;;;;;19.98;18.88;;;;;;;;;;5038288;28;20036;-61
2023/06/05 00:10:17;;;;;;;21.40;20.25;;;;;;;;;;5036534;28;20037;-61
2023/06/05 00:12:42;;;;;;;24.77;23.48;;;;;;;;;;5039887;28;20428;-61
2023/06/05 00:15:08;;;;;;;25.63;24.23;;;;;;;;;;5037079;28;20057;-50
2023/06/05 00:17:34;;;;;;;24.83;23.52;;;;;;;;;;5035412;28;20072;-52
2023/06/05 00:19:59;;;;;;;27.67;26.13;;;;;;;;;;5036280;28;20095;-60
2023/06/05 00:22:28;;;;;;;23.92;22.33;;;;;;;;;;5035557;28;20064;-51
2023/06/05 00:24:54;;;;;;;25.27;23.90;;;;;;;;;;5033783;28;20041;-53
2023/06/05 00:27:19;;;;;;;22.83;21.60;;;;;;;;;;5037517;28;20095;-60
2023/06/05 00:29:45;;;;;;;23.35;22.10;;;;;;;;;;5036983;28;20548;-60
2023/06/05 00:32:10;;;;;;;22.95;21.70;;;;;;;;;;5039962;28;20362;-60
2023/06/05 00:34:36;;;;;;;21.02;19.92;;;;;;;;;;5034633;28;20736;-60
2023/06/05 00:37:01;;;;;;;21.60;20.40;;;;;;;;;;5036348;28;20029;-48
2023/06/05 00:39:27;;;;;;;22.50;21.25;;;;;;;;;;5034981;28;20037;-54
2023/06/05 00:41:52;;;;;;;21.27;20.13;;;;;;;;;;5039492;28;20033;-51
2023/06/05 00:44:18;;;;;;;20.48;19.30;;;;;;;;;;5036240;28;20043;-50
2023/06/05 00:46:45;;;;;;;20.50;19.40;;;;;;;;;;5036750;28;20136;-52
2023/06/05 00:49:11;;;;;;;18.38;17.38;;;;;;;;;;5030649;28;20044;-53
2023/06/05 00:51:40;;;;;;;18.65;17.65;;;;;;;;;;5033816;28;20368;-53
2023/06/05 00:54:07;;;;;;;17.20;16.25;;;;;;;;;;5035776;28;20516;-51
2023/06/05 00:56:35;;;;;;;17.00;16.05;;;;;;;;;;5037608;28;20045;-50
2023/06/05 00:59:01;;;;;;;17.30;16.30;;;;;;;;;;5036111;28;20037;-52
2023/06/05 01:01:28;;;;;;;16.38;15.48;;;;;;;;;;5034727;28;20071;-50
2023/06/05 01:03:57;;;;;;;17.20;16.27;;;;;;;;;;5031327;28;20102;-61
2023/06/05 01:06:26;;;;;;;17.80;16.80;;;;;;;;;;5037529;28;20441;-61
2023/06/05 01:08:53;;;;;;;18.90;17.90;;;;;;;;;;5033266;28;20112;-51
2023/06/05 01:11:28;;;;;;;18.92;17.88;;;;;;;;;;5035809;28;20033;-49
2023/06/05 01:14:12;;;;;;;18.58;17.58;;;;;;;;;;5035787;28;20060;-61
2023/06/05 01:16:39;;;;;;;21.00;19.88;;;;;;;;;;5035281;28;20054;-50
2023/06/05 01:19:06;;;;;;;22.10;20.90;;;;;;;;;;5035114;28;20033;-51
2023/06/05 01:21:32;;;;;;;21.27;20.10;;;;;;;;;;5036878;28;20383;-61
2023/06/05 01:24:01;;;;;;;23.77;22.48;;;;;;;;;;5034068;28;20033;-61
2023/06/05 01:26:52;;;;;;;22.60;21.10;;;;;;;;;;5037076;28;20398;-61
2023/06/05 01:29:23;;;;;;;22.63;21.33;;;;;;;;;;5034508;28;20114;-61
2023/06/05 01:31:51;;;;;;;21.92;20.73;;;;;;;;;;5032427;28;20486;-61
2023/06/05 01:34:19;;;;;;;22.15;20.95;;;;;;;;;;5035957;28;20417;-61
2023/06/05 01:36:45;;;;;;;21.25;20.05;;;;;;;;;;5034795;28;20041;-61
2023/06/05 01:39:12;;;;;;;21.17;19.98;;;;;;;;;;5036937;28;20102;-61
2023/06/05 01:41:39;;;;;;;21.15;19.95;;;;;;;;;;5035146;28;20033;-61
2023/06/05 01:44:08;;;;;;;21.23;20.05;;;;;;;;;;5034768;28;20029;-61
2023/06/05 01:46:33;;;;;;;22.17;20.98;;;;;;;;;;5035443;28;20037;-52
2023/06/05 01:49:01;;;;;;;22.23;21.02;;;;;;;;;;5033995;28;20127;-61
2023/06/05 01:51:26;;;;;;;22.83;21.63;;;;;;;;;;5033716;28;20033;-61
2023/06/05 01:53:52;;;;;;;23.35;22.05;;;;;;;;;;5035113;28;20036;-49
2023/06/05 01:56:23;;;;;;;21.85;20.65;;;;;;;;;;5037926;28;20036;-51
2023/06/05 01:58:49;;;;;;;21.20;19.80;;;;;;;;;;5034801;28;20120;-53
2023/06/05 02:01:16;;;;;;;23.95;22.65;;;;;;;;;;5034617;28;20124;-54
2023/06/05 02:03:47;;;;;;;23.08;21.77;;;;;;;;;;5036260;28;20037;-53
2023/06/05 02:06:14;;;;;;;22.77;21.48;;;;;;;;;;5034863;28;20056;-61
2023/06/05 02:08:40;;;;;;;21.65;20.45;;;;;;;;;;5035181;28;20112;-61
2023/06/05 02:11:09;;;;;;;22.02;20.83;;;;;;;;;;5033301;28;20517;-61
2023/06/05 02:13:39;;;;;;;24.30;23.00;;;;;;;;;;5036296;28;20039;-61
2023/06/05 02:16:05;;;;;;;23.42;22.15;;;;;;;;;;5031983;28;20505;-61
2023/06/05 02:18:30;;;;;;;23.00;21.80;;;;;;;;;;5034274;28;20114;-61
2023/06/05 02:20:56;;;;;;;24.27;22.98;;;;;;;;;;5032749;28;20033;-61
2023/06/05 02:23:23;;;;;;;24.77;23.40;;;;;;;;;;5036557;28;20090;-61
2023/06/05 02:25:48;;;;;;;23.27;22.05;;;;;;;;;;5036519;28;20045;-61
2023/06/05 02:28:14;;;;;;;22.83;21.63;;;;;;;;;;5036893;28;20442;-61
2023/06/05 02:30:39;;;;;;;25.10;23.75;;;;;;;;;;5033081;28;20040;-61
2023/06/05 02:33:04;;;;;;;23.52;22.27;;;;;;;;;;5033353;28;20114;-61
2023/06/05 02:35:30;;;;;;;23.90;22.60;;;;;;;;;;5033654;28;20313;-61
2023/06/05 02:37:56;;;;;;;24.92;23.60;;;;;;;;;;5033723;28;20112;-61
2023/06/05 02:40:21;;;;;;;25.25;23.90;;;;;;;;;;5036290;28;20072;-61
2023/06/05 02:42:47;;;;;;;24.42;23.02;;;;;;;;;;5034647;28;20443;-61
2023/06/05 02:45:12;;;;;;;24.55;23.25;;;;;;;;;;5033720;28;20037;-61
2023/06/05 02:47:38;;;;;;;24.83;23.52;;;;;;;;;;5037950;28;20359;-61
2023/06/05 02:50:04;;;;;;;25.10;23.70;;;;;;;;;;5031157;28;20045;-61
2023/06/05 02:52:34;;;;;;;22.27;21.08;;;;;;;;;;5033642;28;20056;-61
2023/06/05 02:55:01;;;;;;;23.23;22.03;;;;;;;;;;5033828;28;20036;-54
2023/06/05 02:57:26;;;;;;;24.13;22.83;;;;;;;;;;5032752;28;20103;-54
2023/06/05 02:59:52;;;;;;;24.33;23.02;;;;;;;;;;5032236;28;20116;-61
2023/06/05 03:02:17;;;;;;;24.20;22.80;;;;;;;;;;5032823;28;20041;-55
2023/06/05 03:04:42;;;;;;;23.95;22.65;;;;;;;;;;5032794;28;20041;-53
2023/06/05 03:07:09;;;;;;;24.13;22.83;;;;;;;;;;5034778;28;20495;-61
2023/06/05 03:09:36;;;;;;;24.25;22.98;;;;;;;;;;5032660;28;20041;-61
2023/06/05 03:12:01;;;;;;;24.17;22.88;;;;;;;;;;5032667;28;20308;-50
2023/06/05 03:14:27;;;;;;;23.45;22.23;;;;;;;;;;5031044;28;20554;-49
2023/06/05 03:16:53;;;;;;;23.25;21.90;;;;;;;;;;5035381;28;20599;-61
2023/06/05 03:19:20;;;;;;;23.55;22.30;;;;;;;;;;5031699;28;20033;-53
2023/06/05 03:21:47;;;;;;;23.10;21.80;;;;;;;;;;5031983;28;20025;-61
2023/06/05 03:24:14;;;;;;;23.63;22.33;;;;;;;;;;5033372;28;20036;-50
2023/06/05 03:26:40;;;;;;;22.27;21.08;;;;;;;;;;5034309;28;20116;-52
2023/06/05 03:29:07;;;;;;;23.27;21.98;;;;;;;;;;5031906;28;20040;-50
2023/06/05 03:31:32;;;;;;;23.13;21.88;;;;;;;;;;5032659;28;20033;-51
2023/06/05 03:34:00;;;;;;;22.45;21.15;;;;;;;;;;5033630;28;20094;-61
2023/06/05 03:36:28;;;;;;;19.48;18.38;;;;;;;;;;5033987;28;20061;-50
2023/06/05 03:38:54;;;;;;;11.50;10.80;;;;;;;;;;5032920;28;20053;-50
2023/06/05 03:41:19;;;;;;;19.33;18.23;;;;;;;;;;5033148;28;20061;-50
2023/06/05 03:43:46;;;;;;;13.55;12.75;;;;;;;;;;5033673;28;20044;-51
2023/06/05 03:46:18;;;;;;;12.63;11.82;;;;;;;;;;5034206;28;20025;-51
2023/06/05 03:48:48;;;;;;;23.35;22.08;;;;;;;;;;5034538;28;20041;-53
2023/06/05 03:51:18;;;;;;;22.40;21.20;;;;;;;;;;5034147;28;20600;-49
2023/06/05 03:53:44;;;;;;;11.57;10.88;;;;;;;;;;5034029;28;20095;-50
2023/06/05 03:56:11;;;;;;;24.50;23.20;;;;;;;;;;5035140;28;20399;-52
2023/06/05 03:58:37;;;;;;;20.58;19.48;;;;;;;;;;5034098;28;20029;-50
2023/06/05 04:01:03;;;;;;;23.70;22.35;;;;;;;;;;5031274;28;20569;-50
2023/06/05 04:03:28;;;;;;;24.77;23.48;;;;;;;;;;5031787;28;20120;-50
2023/06/05 04:05:54;;;;;;;22.42;21.23;;;;;;;;;;5029458;28;20049;-49
2023/06/05 04:08:19;;;;;;;25.85;24.42;;;;;;;;;;5031590;28;20041;-52
2023/06/05 04:10:44;;;;;;;23.15;21.95;;;;;;;;;;5032899;28;20047;-52
2023/06/05 04:13:10;;;;;;;22.42;21.23;;;;;;;;;;5030135;28;20029;-49
2023/06/05 04:15:36;;;;;;;20.00;18.75;;;;;;;;;;5032540;28;20402;-60
2023/06/05 04:18:02;;;;;;;18.15;17.15;;;;;;;;;;5032185;28;20033;-50
2023/06/05 04:20:27;;;;;;;16.35;15.30;;;;;;;;;;5032130;28;20348;-50
2023/06/05 04:22:52;;;;;;;17.67;16.67;;;;;;;;;;5031795;28;20038;-52
2023/06/05 04:25:18;;;;;;;13.20;12.40;;;;;;;;;;5031988;28;20720;-60
2023/06/05 04:27:45;;;;;;;15.98;15.07;;;;;;;;;;5035698;28;20041;-54
2023/06/05 04:30:12;;;;;;;15.65;14.75;;;;;;;;;;5032386;28;20040;-60
2023/06/05 04:32:39;;;;;;;14.98;14.13;;;;;;;;;;5033504;28;20033;-60
2023/06/05 04:35:06;;;;;;;16.95;16.05;;;;;;;;;;5035298;28;20139;-52
2023/06/05 04:37:32;;;;;;;11.57;10.88;;;;;;;;;;5032230;28;20535;-50
2023/06/05 04:39:58;;;;;;;17.15;16.15;;;;;;;;;;5034430;28;20116;-61
2023/06/05 04:42:25;;;;;;;14.60;13.80;;;;;;;;;;5036011;28;20064;-53
2023/06/05 04:45:02;;;;;;;17.00;16.02;;;;;;;;;;5038103;28;20030;-52
2023/06/05 04:47:28;;;;;;;17.83;16.83;;;;;;;;;;5036038;28;20033;-52
2023/06/05 04:49:54;;;;;;;16.50;15.60;;;;;;;;;;5036029;28;20549;-53
2023/06/05 04:52:21;;;;;;;17.65;16.65;;;;;;;;;;5038166;28;20394;-53
2023/06/05 04:54:47;;;;;;;16.13;15.23;;;;;;;;;;5036504;28;20426;-60
2023/06/05 04:57:12;;;;;;;14.27;13.48;;;;;;;;;;5037715;28;20041;-53
2023/06/05 04:59:38;;;;;;;11.30;10.60;;;;;;;;;;5035992;28;20044;-52
2023/06/05 05:02:04;;;;;;;11.45;10.75;;;;;;;;;;5035338;28;20128;-60
2023/06/05 05:04:29;;;;;;;14.30;13.50;;;;;;;;;;5036358;28;20064;-61
2023/06/05 05:07:00;;;;;;;23.65;22.38;;;;;;;;;;5035108;28;20208;-54
2023/06/05 05:09:26;;;;;;;;;;;;;;;;;;5036253;28;20033;-61
2023/06/05 05:11:51;;;;;;;21.42;20.27;;;;;;;;;;5036766;28;19916;-60
2023/06/05 05:14:17;;;;;;;19.10;18.02;;;;;;;;;;5035382;28;20033;-61
2023/06/05 05:16:42;;;;;;;15.65;14.75;;;;;;;;;;5036687;28;20036;-60
2023/06/05 05:19:08;;;;;;;26.92;25.52;;;;;;;;;;5036618;28;20476;-61
2023/06/05 05:21:33;;;;;;;32.63;30.92;;;;;;;;;;5033651;28;20037;-60
2023/06/05 05:23:58;;;;;;;32.78;31.08;;;;;;;;;;5036623;28;20045;-61
2023/06/05 05:26:23;;;;;;;29.17;27.67;;;;;;;;;;5036519;28;20041;-61
2023/06/05 05:28:49;;;;;;;29.95;28.35;;;;;;;;;;5036412;28;20060;-50
2023/06/05 05:31:15;;;;;;;34.50;32.63;;;;;;;;;;5032676;28;20056;-60
2023/06/05 05:33:41;;;;;;;34.38;32.58;;;;;;;;;;5035316;28;20029;-61
2023/06/05 05:36:06;;;;;;;29.05;27.50;;;;;;;;;;5035219;28;20025;-60
2023/06/05 05:38:32;;;;;;;35.00;33.05;;;;;;;;;;5036516;28;20478;-53
2023/06/05 05:40:57;;;;;;;30.95;29.33;;;;;;;;;;5039047;28;20048;-54
2023/06/05 05:43:22;;;;;;;30.85;29.25;;;;;;;;;;5035158;28;20035;-61
2023/06/05 05:45:48;;;;;;;22.15;20.95;;;;;;;;;;5037438;28;20059;-61
2023/06/05 05:48:13;;;;;;;26.73;25.33;;;;;;;;;;5036639;28;20052;-61
2023/06/05 05:50:40;;;;;;;26.48;25.08;;;;;;;;;;5032923;28;20029;-61
2023/06/05 05:53:06;;;;;;;20.92;19.80;;;;;;;;;;5032755;28;20033;-50
2023/06/05 05:55:31;;;;;;;22.40;21.20;;;;;;;;;;5034993;28;20041;-50
2023/06/05 05:57:57;;;;;;;20.65;19.55;;;;;;;;;;5033505;28;20034;-60
2023/06/05 06:00:22;;;;;;;21.38;20.23;;;;;;;;;;5031356;28;20029;-52
2023/06/05 06:02:48;;;;;;;21.23;20.08;;;;;;;;;;5034938;28;20037;-54
2023/06/05 06:05:13;;;;;;;22.45;21.23;;;;;;;;;;5034193;28;20048;-52
2023/06/05 06:07:41;;;;;;;21.17;20.00;;;;;;;;;;5035181;28;20040;-50
2023/06/05 06:10:08;;;;;;;23.05;21.67;;;;;;;;;;5035373;28;20036;-52
2023/06/05 06:12:33;;;;;;;22.45;21.25;;;;;;;;;;5034624;28;20056;-54
2023/06/05 06:14:59;;;;;;;22.75;21.42;;;;;;;;;;5042562;28;20538;-60
2023/06/05 06:17:24;;;;;;;22.90;21.60;;;;;;;;;;5036555;28;20119;-51
2023/06/05 06:19:49;;;;;;;22.98;21.67;;;;;;;;;;5038569;28;20025;-53
2023/06/05 06:22:15;;;;;;;24.58;23.15;;;;;;;;;;5034067;28;20120;-53
2023/06/05 06:24:42;;;;;;;27.73;26.27;;;;;;;;;;5033468;28;20469;-53
2023/06/05 06:27:10;;;;;;;24.60;23.30;;;;;;;;;;5034975;28;20093;-52
2023/06/05 06:29:37;;;;;;;29.00;27.40;;;;;;;;;;5033682;28;20041;-53
2023/06/05 06:32:03;;;;;;;30.38;28.80;;;;;;;;;;5034968;28;20041;-54
2023/06/05 06:34:29;;;;;;;34.92;33.13;;;;;;;;;;5033032;28;20111;-54
2023/06/05 06:36:55;;;;;;;39.13;37.10;;;;;;;;;;5033063;28;20033;-49
2023/06/05 06:39:24;;;;;;;35.80;33.95;;;;;;;;;;5034547;28;20041;-52
2023/06/05 06:41:51;;;;;;;44.83;42.53;;;;;;;;;;5035387;28;20040;-51
2023/06/05 06:44:17;;;;;;;43.05;40.83;;;;;;;;;;5042834;28;20041;-54
2023/06/05 06:46:42;;;;;;;45.50;43.20;;;;;;;;;;5035227;28;20025;-54
2023/06/05 06:49:08;;;;;;;44.55;39.75;;;;;;;;;;5036486;28;20040;-51
2023/06/05 06:51:33;;;;;;;49.10;46.65;;;;;;;;;;5031950;28;20591;-52
2023/06/05 06:53:58;;;;;;;51.60;48.97;;;;;;;;;;5029500;28;20040;-52
2023/06/05 06:56:25;;;;;;;49.25;46.75;;;;;;;;;;5034970;28;20044;-53
2023/06/05 06:58:53;;;;;;;52.83;50.15;;;;;;;;;;5034217;28;20025;-53
2023/06/05 07:01:19;;;;;;;38.58;36.58;;;;;;;;;;5040122;28;20056;-53
2023/06/05 07:03:45;;;;;;;32.83;31.13;;;;;;;;;;5033166;28;20033;-52
2023/06/05 07:06:11;;;;;;;31.58;29.92;;;;;;;;;;5034822;28;20029;-51
2023/06/05 07:08:37;;;;;;;35.58;33.75;;;;;;;;;;5034439;28;20032;-51
2023/06/05 07:11:02;;;;;;;34.08;32.33;;;;;;;;;;5032844;28;20093;-54
2023/06/05 07:13:28;;;;;;;33.65;31.92;;;;;;;;;;5033775;28;20111;-51
2023/06/05 07:15:53;;;;;;;36.17;34.30;;;;;;;;;;5035770;28;20036;-53
2023/06/05 07:18:19;;;;;;;35.22;33.40;;;;;;;;;;5035446;28;20025;-52
2023/06/05 07:20:45;;;;;;;31.27;29.60;;;;;;;;;;5034232;28;20036;-51
2023/06/05 07:23:10;;;;;;;33.70;31.98;;;;;;;;;;5033032;28;20458;-51
2023/06/05 07:25:37;;;;;;;40.10;38.05;;;;;;;;;;5035447;28;20386;-53
2023/06/05 07:28:08;;;;;;;36.80;34.90;;;;;;;;;;5037738;28;20421;-53
2023/06/05 07:30:33;;;;;;;;;;;;;;;;;;5034775;28;20474;-53
2023/06/05 07:32:59;;;;;;;30.52;28.95;;;;;;;;;;5036332;28;19922;-53
2023/06/05 07:35:24;;;;;;;36.47;34.47;;;;;;;;;;5035318;28;20694;-53
2023/06/05 07:37:49;;;;;;;39.60;37.58;;;;;;;;;;5034716;28;20383;-52
2023/06/05 07:40:15;;;;;;;40.35;38.08;;;;;;;;;;5031349;28;20415;-54
2023/06/05 07:42:40;;;;;;;42.33;40.17;;;;;;;;;;5034976;28;20103;-50
2023/06/05 07:45:06;;;;;;;46.67;44.30;;;;;;;;;;5035647;28;20027;-52
2023/06/05 07:47:31;;;;;;;48.85;46.40;;;;;;;;;;5035736;28;20155;-53
2023/06/05 07:50:03;;;;;;;50.97;48.42;;;;;;;;;;5031545;28;20301;-51
2023/06/05 07:52:30;;;;;;;55.53;52.72;;;;;;;;;;5033161;28;20548;-51
2023/06/05 07:54:55;;;;;;;60.42;57.40;;;;;;;;;;5032132;28;20099;-48
2023/06/05 07:57:20;;;;;;;66.50;63.20;;;;;;;;;;5031998;28;20037;-51
2023/06/05 07:59:48;;;;;;;74.85;71.13;;;;;;;;;;5033397;28;20051;-51
2023/06/05 08:02:14;;;;;;;76.03;72.25;;;;;;;;;;5034774;28;20044;-51
2023/06/05 08:04:40;;;;;;;83.10;79.00;;;;;;;;;;5036228;28;20391;-49
2023/06/05 08:07:06;;;;;;;87.70;83.32;;;;;;;;;;5034414;28;20148;-49
2023/06/05 08:09:33;;;;;;;89.53;85.13;;;;;;;;;;5035427;28;20880;-52
2023/06/05 08:11:59;;;;;;;88.47;84.13;;;;;;;;;;5034042;28;20129;-49
2023/06/05 08:14:25;;;;;;;83.03;78.97;;;;;;;;;;5031786;28;20036;-49
2023/06/05 08:16:51;;;;;;;96.90;92.15;;;;;;;;;;5034873;28;20458;-49
2023/06/05 08:19:17;;;;;;;86.65;82.43;;;;;;;;;;5036886;28;20068;-52
2023/06/05 08:21:42;;;;;;;87.47;83.18;;;;;;;;;;5037238;28;20072;-48
2023/06/05 08:24:07;;;;;;;75.88;72.15;;;;;;;;;;5039986;28;20056;-52
2023/06/05 08:26:33;;;;;;;102.95;97.90;;;;;;;;;;5035741;28;20041;-52
2023/06/05 08:28:59;;;;;;;73.35;69.75;;;;;;;;;;5034200;28;20025;-52
2023/06/05 08:31:25;;;;;;;62.53;59.42;;;;;;;;;;5037671;28;20041;-52
2023/06/05 08:33:51;;;;;;;64.50;61.17;;;;;;;;;;5035092;28;20099;-54
2023/06/05 08:36:17;;;;;;;71.13;67.60;;;;;;;;;;5037868;28;20033;-52
2023/06/05 08:38:43;;;;;;;67.07;63.78;;;;;;;;;;5037115;28;20370;-54
2023/06/05 08:41:10;;;;;;;63.00;59.85;;;;;;;;;;5035788;28;20036;-54
2023/06/05 08:43:40;;;;;;;67.20;63.70;;;;;;;;;;5038258;28;20125;-54
2023/06/05 08:46:08;;;;;;;89.38;84.88;;;;;;;;;;5034023;28;20341;-54
2023/06/05 08:48:41;;;;;;;92.13;87.28;;;;;;;;;;5039395;28;20641;-53
2023/06/05 08:51:08;;;;;;;101.72;96.70;;;;;;;;;;5035098;28;20025;-54
2023/06/05 08:53:34;;;;;;;124.85;118.72;;;;;;;;;;5034331;28;20124;-52
2023/06/05 08:56:01;;;;;;;66.97;63.63;;;;;;;;;;5033789;28;20048;-51
2023/06/05 08:58:26;;;;;;;61.65;58.55;;;;;;;;;;5034216;28;20041;-54
2023/06/05 09:00:53;;;;;;;35.83;33.88;;;;;;;;;;5033408;28;20366;-51
2023/06/05 09:03:20;;;;;;;38.17;36.25;;;;;;;;;;5033742;28;20489;-52
2023/06/05 09:05:48;;;;;;;37.78;35.88;;;;;;;;;;5034349;28;20030;-52
2023/06/05 09:08:16;;;;;;;43.53;41.33;;;;;;;;;;5034382;28;20045;-50
2023/06/05 09:10:42;;;;;;;86.07;81.85;;;;;;;;;;5036871;28;20029;-52
2023/06/05 09:13:09;;;;;;;35.95;34.10;;;;;;;;;;5035264;28;20029;-54
2023/06/05 09:15:34;;;;;;;42.10;39.92;;;;;;;;;;5043947;28;20068;-52
2023/06/05 09:18:04;;;;;;;33.13;31.42;;;;;;;;;;5038507;28;20059;-50
2023/06/05 09:20:34;;;;;;;36.35;34.45;;;;;;;;;;5037500;28;20148;-53
2023/06/05 09:23:05;;;;;;;29.38;27.88;;;;;;;;;;5040544;28;20399;-53
2023/06/05 09:25:50;;;;;;;31.83;30.13;;;;;;;;;;5030233;28;20060;-53
2023/06/05 09:28:16;;;;;;;22.85;21.65;;;;;;;;;;5033401;28;20056;-54
2023/06/05 09:30:59;;;;;;;26.80;25.40;;;;;;;;;;5038977;28;20225;-49
2023/06/05 09:33:35;;;;;;;27.00;25.50;;;;;;;;;;5029686;28;20106;-52
2023/06/05 09:36:05;;;;;;;25.52;24.13;;;;;;;;;;5040068;28;20064;-52
2023/06/05 09:38:31;;;;;;;35.22;33.42;;;;;;;;;;5036015;28;20420;-51
2023/06/05 09:41:10;;;;;;;24.45;23.15;;;;;;;;;;5035126;28;20037;-50
2023/06/05 09:43:36;;;;;;;21.47;20.30;;;;;;;;;;5044344;28;20377;-51
2023/06/05 09:46:12;;;;;;;21.00;19.90;;;;;;;;;;5037580;28;20823;-51
2023/06/05 09:48:39;;;;;;;29.08;27.50;;;;;;;;;;5038157;28;20033;-50
2023/06/05 09:51:14;;;;;;;21.25;20.05;;;;;;;;;;5037596;28;20049;-50
2023/06/05 09:53:47;;;;;;;30.70;29.08;;;;;;;;;;5034833;28;20041;-50
2023/06/05 09:56:14;;;;;;;20.73;19.63;;;;;;;;;;5036736;28;20037;-52
2023/06/05 09:58:51;;;;;;;18.00;17.00;;;;;;;;;;5034537;28;20374;-52
2023/06/05 10:01:22;;;;;;;61.90;58.80;;;;;;;;;;5034518;28;20467;-48
2023/06/05 10:03:58;;;;;;;66.57;63.28;;;;;;;;;;5035606;28;20047;-51
2023/06/05 10:06:29;;;;;;;70.10;66.60;;;;;;;;;;5035239;28;20108;-59
2023/06/05 10:08:58;;;;;;;63.00;59.85;;;;;;;;;;5035924;28;20041;-60
2023/06/05 10:11:26;;;;;;;77.40;73.55;;;;;;;;;;5034599;28;20116;-60
2023/06/05 10:13:52;;;;;;;73.28;69.65;;;;;;;;;;5035967;28;20044;-59
2023/06/05 10:16:18;;;;;;;82.68;78.50;;;;;;;;;;5039053;28;20041;-60
2023/06/05 10:18:46;;;;;;;62.08;58.92;;;;;;;;;;5036867;28;20037;-60
2023/06/05 10:21:18;;;;;;;80.43;76.38;;;;;;;;;;5035649;28;20102;-60
2023/06/05 10:23:56;;;;;;;34.92;33.13;;;;;;;;;;5032529;28;20534;-60
2023/06/05 10:26:43;;;;;;;93.60;88.97;;;;;;;;;;5036187;28;20063;-59
2023/06/05 10:29:30;;;;;;;59.00;55.85;;;;;;;;;;5037168;28;20038;-60
2023/06/05 10:32:03;;;;;;;64.53;61.33;;;;;;;;;;5034335;28;20340;-60
2023/06/05 10:34:49;;;;;;;63.95;60.78;;;;;;;;;;5034380;28;20032;-60
2023/06/05 10:37:21;;;;;;;58.53;55.58;;;;;;;;;;5035726;28;20434;-59
2023/06/05 10:39:49;;;;;;;66.93;63.58;;;;;;;;;;5030691;28;20112;-59
2023/06/05 10:42:28;;;;;;;60.60;57.53;;;;;;;;;;5033247;28;20103;-60
2023/06/05 10:44:55;;;;;;;62.25;59.13;;;;;;;;;;5033056;28;20131;-60
2023/06/05 10:47:32;;;;;;;62.70;59.58;;;;;;;;;;5035816;28;20085;-60
2023/06/05 10:50:31;;;;;;;57.35;54.47;;;;;;;;;;5034184;28;20467;-60
2023/06/05 10:52:57;;;;;;;74.78;71.05;;;;;;;;;;5019285;28;20045;-61
2023/06/05 10:55:24;;;;;;;54.67;51.88;;;;;;;;;;5034719;28;20145;-61
2023/06/05 10:57:56;;;;;;;52.97;50.25;;;;;;;;;;5036321;28;20073;-60
2023/06/05 11:00:21;;;;;;;61.50;58.42;;;;;;;;;;5033962;28;20040;-60
2023/06/05 11:02:48;;;;;;;51.50;48.88;;;;;;;;;;5035969;28;20060;-61
2023/06/05 11:05:14;;;;;;;44.63;42.33;;;;;;;;;;5033490;28;20410;-60
2023/06/05 11:07:41;;;;;;;24.05;22.75;;;;;;;;;;5035279;28;20029;-60
2023/06/05 11:10:15;;;;;;;25.10;23.80;;;;;;;;;;5033630;28;20029;-52
2023/06/05 11:12:40;;;;;;;24.33;23.02;;;;;;;;;;5033258;28;20037;-54
2023/06/05 11:15:13;;;;;;;31.70;30.00;;;;;;;;;;5035772;28;20037;-60
2023/06/05 11:17:41;;;;;;;35.15;33.35;;;;;;;;;;5034291;28;20037;-60
2023/06/05 11:20:09;;;;;;;31.98;30.30;;;;;;;;;;5034234;28;20031;-60
2023/06/05 11:22:53;;;;;;;30.92;29.33;;;;;;;;;;5033644;28;20069;-60
2023/06/05 11:25:21;;;;;;;33.03;31.25;;;;;;;;;;5035906;28;20429;-61
2023/06/05 11:27:49;;;;;;;33.50;31.80;;;;;;;;;;5034282;28;20061;-61
2023/06/05 11:30:16;;;;;;;27.25;25.85;;;;;;;;;;5034185;28;20124;-60
2023/06/05 11:32:43;;;;;;;33.65;31.95;;;;;;;;;;5034296;28;20038;-53
2023/06/05 11:35:09;;;;;;;39.15;36.95;;;;;;;;;;5033425;28;20072;-60
2023/06/05 11:37:35;;;;;;;33.40;31.70;;;;;;;;;;5035614;28;20039;-60
2023/06/05 11:40:08;;;;;;;42.40;40.22;;;;;;;;;;5032707;28;20057;-60
2023/06/05 11:42:33;;;;;;;36.30;34.33;;;;;;;;;;5042187;28;20048;-61
2023/06/05 11:44:59;;;;;;;47.70;45.30;;;;;;;;;;5037029;28;20037;-60
2023/06/05 11:47:29;;;;;;;34.97;33.17;;;;;;;;;;5032365;28;20552;-60
2023/06/05 11:50:10;;;;;;;33.40;31.70;;;;;;;;;;5035756;28;20394;-60
2023/06/05 11:52:36;;;;;;;34.17;32.40;;;;;;;;;;5038475;28;20048;-60
2023/06/05 11:55:15;;;;;;;34.08;32.22;;;;;;;;;;5038195;28;20036;-53
2023/06/05 11:57:46;;;;;;;34.90;33.10;;;;;;;;;;5037067;28;20072;-53
2023/06/05 12:00:13;;;;;;;27.23;25.83;;;;;;;;;;5036286;28;20056;-49
2023/06/05 12:02:41;;;;;;;31.45;29.83;;;;;;;;;;5036979;28;20538;-52
2023/06/05 12:05:09;;;;;;;33.55;31.85;;;;;;;;;;5034563;28;20451;-51
2023/06/05 12:07:39;;;;;;;30.85;29.15;;;;;;;;;;5037875;28;20104;-49
2023/06/05 12:10:07;;;;;;;35.45;33.65;;;;;;;;;;5036486;28;20031;-50
2023/06/05 12:12:50;;;;;;;27.00;25.60;;;;;;;;;;5040561;28;20486;-52
2023/06/05 12:15:16;;;;;;;25.48;24.08;;;;;;;;;;5039012;28;20072;-51
2023/06/05 12:17:51;;;;;;;32.25;30.58;;;;;;;;;;5038219;28;20032;-49
2023/06/05 12:20:18;;;;;;;24.33;23.02;;;;;;;;;;5036135;28;20091;-49
2023/06/05 12:22:44;;;;;;;33.60;31.88;;;;;;;;;;5035001;28;20117;-51
2023/06/05 12:25:18;;;;;;;24.77;23.48;;;;;;;;;;5037277;28;20194;-50
2023/06/05 12:27:45;;;;;;;22.73;21.10;;;;;;;;;;5037874;28;20037;-53
2023/06/05 12:30:11;;;;;;;20.63;19.42;;;;;;;;;;5037554;28;20037;-52
2023/06/05 12:32:39;;;;;;;24.42;23.13;;;;;;;;;;5037491;28;20037;-53
2023/06/05 12:35:05;;;;;;;26.60;25.20;;;;;;;;;;5036007;28;20115;-52
2023/06/05 12:37:34;;;;;;;22.33;21.13;;;;;;;;;;5035091;28;20037;-52
2023/06/05 12:40:01;;;;;;;19.23;18.13;;;;;;;;;;5035084;28;20573;-52
2023/06/05 12:42:28;;;;;;;19.08;17.75;;;;;;;;;;5038024;28;20033;-50
2023/06/05 12:44:54;;;;;;;18.65;17.65;;;;;;;;;;5038329;28;20279;-52
2023/06/05 12:47:20;;;;;;;17.73;16.73;;;;;;;;;;5037186;28;20037;-50
2023/06/05 12:49:46;;;;;;;17.80;16.80;;;;;;;;;;5039062;28;20037;-52
2023/06/05 12:52:11;;;;;;;19.50;18.40;;;;;;;;;;5038640;28;20122;-51
2023/06/05 12:54:37;;;;;;;18.67;17.65;;;;;;;;;;5038513;28;20032;-51
2023/06/05 12:57:05;;;;;;;16.45;15.55;;;;;;;;;;5035146;28;20040;-53
2023/06/05 12:59:30;;;;;;;17.35;16.17;;;;;;;;;;5033545;28;20048;-50
2023/06/05 13:01:56;;;;;;;17.27;16.33;;;;;;;;;;5029231;28;20045;-51
2023/06/05 13:04:21;;;;;;;16.17;15.25;;;;;;;;;;5036692;28;20128;-48
2023/06/05 13:06:46;;;;;;;16.38;15.48;;;;;;;;;;5040504;28;20029;-51
2023/06/05 13:09:12;;;;;;;16.67;15.77;;;;;;;;;;5036576;28;20039;-52
2023/06/05 13:11:37;;;;;;;18.25;17.25;;;;;;;;;;5036144;28;20041;-48
2023/06/05 13:14:03;;;;;;;20.05;18.95;;;;;;;;;;5035980;28;20039;-49
2023/06/05 13:16:28;;;;;;;29.42;27.73;;;;;;;;;;5035902;28;20112;-48
2023/06/05 13:18:53;;;;;;;29.83;28.23;;;;;;;;;;5035965;28;20144;-49
2023/06/05 13:21:19;;;;;;;19.80;18.70;;;;;;;;;;5036580;28;20088;-51
2023/06/05 13:23:44;;;;;;;20.05;18.95;;;;;;;;;;5036270;28;20044;-51
2023/06/05 13:26:10;;;;;;;19.20;17.88;;;;;;;;;;5036204;28;20037;-49
2023/06/05 13:28:35;;;;;;;18.35;17.35;;;;;;;;;;5038480;28;20037;-51
2023/06/05 13:31:02;;;;;;;17.38;16.38;;;;;;;;;;5035166;28;20451;-50
2023/06/05 13:33:28;;;;;;;18.00;16.98;;;;;;;;;;5040303;28;20033;-51
2023/06/05 13:35:56;;;;;;;18.20;17.20;;;;;;;;;;5038941;28;20042;-51
2023/06/05 13:38:21;;;;;;;19.00;17.90;;;;;;;;;;5037069;28;20036;-49
2023/06/05 13:40:49;;;;;;;17.70;16.70;;;;;;;;;;5038155;28;20025;-52
2023/06/05 13:43:15;;;;;;;18.00;17.00;;;;;;;;;;5035368;28;20044;-48
2023/06/05 13:45:40;;;;;;;19.98;18.88;;;;;;;;;;5034068;28;20041;-52
2023/06/05 13:48:06;;;;;;;21.33;20.20;;;;;;;;;;5035340;28;20572;-52
2023/06/05 13:50:31;;;;;;;21.52;20.38;;;;;;;;;;5033276;28;20029;-52
2023/06/05 13:52:56;;;;;;;18.35;17.35;;;;;;;;;;5035311;28;20104;-48
2023/06/05 13:55:22;;;;;;;25.30;23.95;;;;;;;;;;5033695;28;20095;-49
2023/06/05 13:57:47;;;;;;;22.02;20.83;;;;;;;;;;5036202;28;20124;-51
2023/06/05 14:00:14;;;;;;;19.20;18.15;;;;;;;;;;5034937;28;20467;-50
2023/06/05 14:02:40;;;;;;;20.88;19.75;;;;;;;;;;5035773;28;20029;-49
2023/06/05 14:05:07;;;;;;;23.73;22.33;;;;;;;;;;5032968;28;20033;-51
2023/06/05 14:07:33;;;;;;;18.33;17.33;;;;;;;;;;5036141;28;20029;-51
2023/06/05 14:09:59;;;;;;;21.23;20.10;;;;;;;;;;5033467;28;20028;-50
2023/06/05 14:12:24;;;;;;;18.63;17.52;;;;;;;;;;5034649;28;20371;-52
2023/06/05 14:14:50;;;;;;;17.75;16.75;;;;;;;;;;5035489;28;20033;-50
2023/06/05 14:17:15;;;;;;;18.27;17.08;;;;;;;;;;5033425;28;20206;-51
2023/06/05 14:19:41;;;;;;;16.73;15.82;;;;;;;;;;5034614;28;20414;-50